sensor_id;sensor_type;location;lat;lon;timestamp;pressure;altitude;pressure_sealevel;temperature;humidity
86684;BME280;77427;42.228;24.728;2024-03-23T00:54:16;99674.34;;;21.93;37.14
86684;BME280;77427;42.228;24.728;2024-03-23T00:56:41;99675.84;;;21.95;36.83
86684;BME280;77427;42.228;24.728;2024-03-23T00:59:07;99677.25;;;21.91;37.22
86684;BME280;77427;42.228;24.728;2024-03-23T01:01:32;99671.38;;;21.88;37.35
86684;BME280;77427;42.228;24.728;2024-03-23T01:03:58;99677.06;;;21.93;37.63
86684;BME280;77427;42.228;24.728;2024-03-23T01:06:24;99677.34;;;21.98;36.97
86684;BME280;77427;42.228;24.728;2024-03-23T01:08:49;99670.84;;;21.99;36.82
86684;BME280;77427;42.228;24.728;2024-03-23T01:11:15;99677.91;;;21.93;37.23
86684;BME280;77427;42.228;24.728;2024-03-23T01:13:40;99670.97;;;21.91;37.34
86684;BME280;77427;42.228;24.728;2024-03-23T01:16:06;99667.88;;;21.94;36.92
86684;BME280;77427;42.228;24.728;2024-03-23T01:18:31;99663.47;;;21.93;37.26
86684;BME280;77427;42.228;24.728;2024-03-23T01:20:58;99655.06;;;21.88;36.85
86684;BME280;77427;42.228;24.728;2024-03-23T01:23:23;99656.09;;;21.87;37.54
86684;BME280;77427;42.228;24.728;2024-03-23T01:25:52;99667.59;;;21.89;37.67
86684;BME280;77427;42.228;24.728;2024-03-23T01:28:19;99663.47;;;21.93;37.45
86684;BME280;77427;42.228;24.728;2024-03-23T01:30:45;99664.31;;;21.93;37.26
86684;BME280;77427;42.228;24.728;2024-03-23T01:33:10;99670.97;;;21.91;37.38
86684;BME280;77427;42.228;24.728;2024-03-23T01:35:35;99667.22;;;21.92;36.78
86684;BME280;77427;42.228;24.728;2024-03-23T01:38:01;99671.41;;;21.94;36.76
86684;BME280;77427;42.228;24.728;2024-03-23T01:40:26;99666.56;;;21.90;37.52
86684;BME280;77427;42.228;24.728;2024-03-23T01:42:57;99665.69;;;21.83;37.47
86684;BME280;77427;42.228;24.728;2024-03-23T01:45:23;99665.69;;;21.83;37.44
86684;BME280;77427;42.228;24.728;2024-03-23T01:47:50;99662.00;;;21.90;36.86
86684;BME280;77427;42.228;24.728;2024-03-23T01:50:16;99662.88;;;21.97;36.48
86684;BME280;77427;42.228;24.728;2024-03-23T01:52:41;99655.31;;;21.93;36.74
86684;BME280;77427;42.228;24.728;2024-03-23T01:55:07;99663.25;;;21.94;36.85
86684;BME280;77427;42.228;24.728;2024-03-23T01:57:33;99659.53;;;21.95;36.71
86684;BME280;77427;42.228;24.728;2024-03-23T01:59:58;99654.72;;;21.97;36.96
86684;BME280;77427;42.228;24.728;2024-03-23T02:02:23;99662.81;;;21.91;37.20
86684;BME280;77427;42.228;24.728;2024-03-23T02:04:49;99660.69;;;21.86;37.48
86684;BME280;77427;42.228;24.728;2024-03-23T02:07:14;99656.47;;;21.84;36.96
86684;BME280;77427;42.228;24.728;2024-03-23T02:09:39;99661.53;;;21.87;37.38
86684;BME280;77427;42.228;24.728;2024-03-23T02:12:05;99660.94;;;21.91;36.64
86684;BME280;77427;42.228;24.728;2024-03-23T02:14:31;99658.63;;;21.88;36.79
86684;BME280;77427;42.228;24.728;2024-03-23T02:16:57;99665.94;;;21.88;36.88
86684;BME280;77427;42.228;24.728;2024-03-23T02:19:22;99654.84;;;21.89;36.48
86684;BME280;77427;42.228;24.728;2024-03-23T02:21:48;99658.22;;;21.91;37.22
86684;BME280;77427;42.228;24.728;2024-03-23T02:24:13;99655.47;;;21.85;37.23
86684;BME280;77427;42.228;24.728;2024-03-23T02:26:39;99661.91;;;21.84;37.37
86684;BME280;77427;42.228;24.728;2024-03-23T02:29:04;99652.91;;;21.83;36.92
86684;BME280;77427;42.228;24.728;2024-03-23T02:31:30;99664.72;;;21.90;36.62
86684;BME280;77427;42.228;24.728;2024-03-23T02:33:55;99649.88;;;21.93;36.25
86684;BME280;77427;42.228;24.728;2024-03-23T02:36:20;99661.16;;;21.90;37.11
86684;BME280;77427;42.228;24.728;2024-03-23T02:38:46;99659.44;;;21.89;37.04
86684;BME280;77427;42.228;24.728;2024-03-23T02:41:12;99650.84;;;21.85;36.44
86684;BME280;77427;42.228;24.728;2024-03-23T02:43:37;99659.84;;;21.86;36.97
86684;BME280;77427;42.228;24.728;2024-03-23T02:46:03;99658.53;;;21.82;37.16
86684;BME280;77427;42.228;24.728;2024-03-23T02:48:29;99666.03;;;21.80;36.54
86684;BME280;77427;42.228;24.728;2024-03-23T02:50:54;99669.78;;;21.79;37.16
86684;BME280;77427;42.228;24.728;2024-03-23T02:53:20;99668.44;;;21.89;37.07
86684;BME280;77427;42.228;24.728;2024-03-23T02:55:45;99663.47;;;21.93;36.76
86684;BME280;77427;42.228;24.728;2024-03-23T02:58:11;99660.69;;;21.86;36.67
86684;BME280;77427;42.228;24.728;2024-03-23T03:00:36;99656.72;;;21.89;36.87
86684;BME280;77427;42.228;24.728;2024-03-23T03:03:02;99653.00;;;21.90;36.54
86684;BME280;77427;42.228;24.728;2024-03-23T03:05:28;99658.44;;;21.90;36.96
86684;BME280;77427;42.228;24.728;2024-03-23T03:07:54;99655.63;;;21.83;36.56
86684;BME280;77427;42.228;24.728;2024-03-23T03:10:19;99658.06;;;21.78;36.94
86684;BME280;77427;42.228;24.728;2024-03-23T03:12:44;99654.50;;;21.78;36.61
86684;BME280;77427;42.228;24.728;2024-03-23T03:15:10;99664.34;;;21.79;36.87
86684;BME280;77427;42.228;24.728;2024-03-23T03:17:35;99666.81;;;21.74;37.01
86684;BME280;77427;42.228;24.728;2024-03-23T03:20:01;99654.66;;;21.91;36.06
86684;BME280;77427;42.228;24.728;2024-03-23T03:22:26;99657.25;;;21.99;36.14
86684;BME280;77427;42.228;24.728;2024-03-23T03:24:51;99659.97;;;21.99;36.48
86684;BME280;77427;42.228;24.728;2024-03-23T03:27:17;99663.34;;;22.01;36.12
86684;BME280;77427;42.228;24.728;2024-03-23T03:29:42;99657.50;;;22.04;35.84
86684;BME280;77427;42.228;24.728;2024-03-23T03:32:07;99658.09;;;21.99;35.73
86684;BME280;77427;42.228;24.728;2024-03-23T03:34:33;99667.88;;;21.94;36.25
86684;BME280;77427;42.228;24.728;2024-03-23T03:36:59;99676.41;;;21.91;36.76
86684;BME280;77427;42.228;24.728;2024-03-23T03:39:24;99666.97;;;21.87;36.10
86684;BME280;77427;42.228;24.728;2024-03-23T03:41:50;99665.28;;;21.86;36.19
86684;BME280;77427;42.228;24.728;2024-03-23T03:44:16;99672.91;;;21.97;36.16
86684;BME280;77427;42.228;24.728;2024-03-23T03:46:42;99670.00;;;21.98;36.18
86684;BME280;77427;42.228;24.728;2024-03-23T03:49:07;99666.19;;;21.93;36.15
86684;BME280;77427;42.228;24.728;2024-03-23T03:51:33;99665.53;;;21.91;36.15
86684;BME280;77427;42.228;24.728;2024-03-23T03:53:58;99668.91;;;21.93;36.70
86684;BME280;77427;42.228;24.728;2024-03-23T03:56:23;99668.44;;;21.89;36.31
86684;BME280;77427;42.228;24.728;2024-03-23T03:58:49;99676.91;;;21.80;36.59
86684;BME280;77427;42.228;24.728;2024-03-23T04:01:14;99675.41;;;21.77;36.49
86684;BME280;77427;42.228;24.728;2024-03-23T04:03:40;99673.91;;;21.75;36.46
86684;BME280;77427;42.228;24.728;2024-03-23T04:06:11;99680.84;;;21.77;36.70
86684;BME280;77427;42.228;24.728;2024-03-23T04:08:37;99679.53;;;21.88;36.49
86684;BME280;77427;42.228;24.728;2024-03-23T04:11:02;99672.88;;;21.90;36.41
86684;BME280;77427;42.228;24.728;2024-03-23T04:13:27;99677.84;;;21.87;36.39
86684;BME280;77427;42.228;24.728;2024-03-23T04:15:56;99682.03;;;21.89;36.30
86684;BME280;77427;42.228;24.728;2024-03-23T04:18:22;99683.53;;;21.92;36.52
86684;BME280;77427;42.228;24.728;2024-03-23T04:20:48;99680.28;;;21.82;36.50
86684;BME280;77427;42.228;24.728;2024-03-23T04:23:14;99683.22;;;21.80;35.99
86684;BME280;77427;42.228;24.728;2024-03-23T04:25:39;99684.38;;;21.78;36.72
86684;BME280;77427;42.228;24.728;2024-03-23T04:28:05;99687.50;;;21.75;36.81
86684;BME280;77427;42.228;24.728;2024-03-23T04:30:31;99685.34;;;21.85;36.39
86684;BME280;77427;42.228;24.728;2024-03-23T04:32:57;99678.88;;;21.86;36.20
86684;BME280;77427;42.228;24.728;2024-03-23T04:35:23;99691.81;;;21.84;36.24
86684;BME280;77427;42.228;24.728;2024-03-23T04:37:50;99692.22;;;21.81;36.65
86684;BME280;77427;42.228;24.728;2024-03-23T04:40:17;99682.00;;;21.83;36.31
86684;BME280;77427;42.228;24.728;2024-03-23T04:42:43;99691.81;;;21.84;36.11
86684;BME280;77427;42.228;24.728;2024-03-23T04:45:09;99685.63;;;21.75;36.72
86684;BME280;77427;42.228;24.728;2024-03-23T04:47:36;99684.13;;;21.73;36.35
86684;BME280;77427;42.228;24.728;2024-03-23T04:50:02;99695.41;;;21.70;36.42
86684;BME280;77427;42.228;24.728;2024-03-23T04:52:28;99695.41;;;21.70;36.87
86684;BME280;77427;42.228;24.728;2024-03-23T04:54:54;99696.59;;;21.82;36.62
86684;BME280;77427;42.228;24.728;2024-03-23T04:57:19;99690.59;;;21.86;36.38
86684;BME280;77427;42.228;24.728;2024-03-23T04:59:45;99696.22;;;21.85;36.13
86684;BME280;77427;42.228;24.728;2024-03-23T05:02:10;99694.41;;;21.92;36.39
86684;BME280;77427;42.228;24.728;2024-03-23T05:04:35;99698.78;;;21.93;35.85
86684;BME280;77427;42.228;24.728;2024-03-23T05:07:02;99697.69;;;21.87;35.91
86684;BME280;77427;42.228;24.728;2024-03-23T05:09:28;99699.31;;;21.82;36.07
86684;BME280;77427;42.228;24.728;2024-03-23T05:11:56;99688.16;;;21.77;36.04
86684;BME280;77427;42.228;24.728;2024-03-23T05:14:21;99700.81;;;21.84;36.10
86684;BME280;77427;42.228;24.728;2024-03-23T05:16:47;99696.31;;;21.77;36.21
86684;BME280;77427;42.228;24.728;2024-03-23T05:19:12;99686.84;;;21.73;36.25
86684;BME280;77427;42.228;24.728;2024-03-23T05:21:38;99693.00;;;21.96;36.37
86684;BME280;77427;42.228;24.728;2024-03-23T05:24:03;99704.81;;;22.09;36.16
86684;BME280;77427;42.228;24.728;2024-03-23T05:26:29;99692.47;;;22.07;36.15
86684;BME280;77427;42.228;24.728;2024-03-23T05:28:54;99692.47;;;22.07;36.03
86684;BME280;77427;42.228;24.728;2024-03-23T05:31:27;99685.59;;;22.11;35.68
86684;BME280;77427;42.228;24.728;2024-03-23T05:33:53;99684.31;;;22.07;35.96
86684;BME280;77427;42.228;24.728;2024-03-23T05:36:18;99687.81;;;22.01;36.17
86684;BME280;77427;42.228;24.728;2024-03-23T05:38:44;99684.63;;;21.97;36.11
86684;BME280;77427;42.228;24.728;2024-03-23T05:41:09;99680.41;;;21.95;35.79
86684;BME280;77427;42.228;24.728;2024-03-23T05:43:35;99692.72;;;21.91;36.37
86684;BME280;77427;42.228;24.728;2024-03-23T05:46:01;99688.81;;;22.00;35.59
86684;BME280;77427;42.228;24.728;2024-03-23T05:48:44;99688.44;;;22.03;35.84
86684;BME280;77427;42.228;24.728;2024-03-23T05:51:09;99684.63;;;21.97;36.40
86684;BME280;77427;42.228;24.728;2024-03-23T05:53:36;99691.38;;;22.01;35.63
86684;BME280;77427;42.228;24.728;2024-03-23T05:56:03;99693.47;;;22.06;36.22
86684;BME280;77427;42.228;24.728;2024-03-23T05:58:32;99693.69;;;22.04;35.78
86684;BME280;77427;42.228;24.728;2024-03-23T06:00:59;99682.75;;;21.98;36.32
86684;BME280;77427;42.228;24.728;2024-03-23T06:03:26;99680.16;;;21.90;36.37
86684;BME280;77427;42.228;24.728;2024-03-23T06:05:51;99687.91;;;21.93;36.14
86684;BME280;77427;42.228;24.728;2024-03-23T06:08:18;99688.44;;;22.03;35.61
86684;BME280;77427;42.228;24.728;2024-03-23T06:10:45;99685.72;;;22.03;36.18
86684;BME280;77427;42.228;24.728;2024-03-23T06:13:10;99687.59;;;22.02;35.31
86684;BME280;77427;42.228;24.728;2024-03-23T06:15:36;99687.22;;;22.05;35.37
86684;BME280;77427;42.228;24.728;2024-03-23T06:18:03;99680.53;;;22.08;35.07
86684;BME280;77427;42.228;24.728;2024-03-23T06:20:29;99684.22;;;22.00;35.33
86684;BME280;77427;42.228;24.728;2024-03-23T06:22:54;99688.19;;;21.98;35.37
86684;BME280;77427;42.228;24.728;2024-03-23T06:25:20;99678.75;;;21.94;35.63
86684;BME280;77427;42.228;24.728;2024-03-23T06:27:45;99678.78;;;22.00;35.31
86684;BME280;77427;42.228;24.728;2024-03-23T06:30:11;99684.31;;;22.07;35.66
86684;BME280;77427;42.228;24.728;2024-03-23T06:32:36;99684.09;;;22.08;35.17
86684;BME280;77427;42.228;24.728;2024-03-23T06:35:02;99677.69;;;22.16;34.84
86684;BME280;77427;42.228;24.728;2024-03-23T06:37:33;99680.66;;;22.21;35.33
86684;BME280;77427;42.228;24.728;2024-03-23T06:39:58;99682.72;;;22.19;35.16
86684;BME280;77427;42.228;24.728;2024-03-23T06:42:24;99684.81;;;22.17;35.35
86684;BME280;77427;42.228;24.728;2024-03-23T06:44:49;99685.25;;;22.20;35.34
86684;BME280;77427;42.228;24.728;2024-03-23T06:47:14;99691.94;;;22.18;35.65
86684;BME280;77427;42.228;24.728;2024-03-23T06:49:40;99682.28;;;22.15;36.21
86684;BME280;77427;42.228;24.728;2024-03-23T06:52:05;99688.56;;;22.16;35.69
86684;BME280;77427;42.228;24.728;2024-03-23T06:54:31;99690.69;;;22.20;35.85
86684;BME280;77427;42.228;24.728;2024-03-23T06:56:56;99684.44;;;22.20;36.08
86684;BME280;77427;42.228;24.728;2024-03-23T06:59:21;99690.25;;;22.17;36.04
86684;BME280;77427;42.228;24.728;2024-03-23T07:01:47;99681.44;;;22.15;36.11
86684;BME280;77427;42.228;24.728;2024-03-23T07:04:12;99681.06;;;22.18;36.45
86684;BME280;77427;42.228;24.728;2024-03-23T07:06:44;99682.34;;;22.22;36.58
86684;BME280;77427;42.228;24.728;2024-03-23T07:09:10;99673.56;;;22.20;36.51
86684;BME280;77427;42.228;24.728;2024-03-23T07:11:36;99675.22;;;22.21;36.62
86684;BME280;77427;42.228;24.728;2024-03-23T07:14:01;99678.19;;;22.26;36.51
86684;BME280;77427;42.228;24.728;2024-03-23T07:16:28;99674.44;;;22.27;36.45
86684;BME280;77427;42.228;24.728;2024-03-23T07:18:53;99670.22;;;22.24;36.37
86684;BME280;77427;42.228;24.728;2024-03-23T07:21:19;99666.28;;;22.27;36.06
86684;BME280;77427;42.228;24.728;2024-03-23T07:23:44;99673.22;;;22.29;36.00
86684;BME280;77427;42.228;24.728;2024-03-23T07:26:12;99668.88;;;22.35;36.10
86684;BME280;77427;42.228;24.728;2024-03-23T07:28:38;99673.25;;;22.36;35.76
86684;BME280;77427;42.228;24.728;2024-03-23T07:31:09;99660.31;;;22.38;36.27
86684;BME280;77427;42.228;24.728;2024-03-23T07:33:36;99665.34;;;22.41;35.93
86684;BME280;77427;42.228;24.728;2024-03-23T07:36:01;99666.19;;;22.42;35.57
86684;BME280;77427;42.228;24.728;2024-03-23T07:38:28;99667.41;;;22.39;36.11
86684;BME280;77427;42.228;24.728;2024-03-23T07:41:05;99652.53;;;22.35;36.09
86684;BME280;77427;42.228;24.728;2024-03-23T07:43:31;99660.75;;;22.42;35.94
86684;BME280;77427;42.228;24.728;2024-03-23T07:45:57;99658.25;;;22.47;35.50
86684;BME280;77427;42.228;24.728;2024-03-23T07:48:23;99655.75;;;22.45;35.91
86684;BME280;77427;42.228;24.728;2024-03-23T07:53:23;99646.16;;;22.49;35.58
86684;BME280;77427;42.228;24.728;2024-03-23T07:55:56;99645.94;;;22.51;35.38
86684;BME280;77427;42.228;24.728;2024-03-23T07:58:22;99640.72;;;22.49;35.97
86684;BME280;77427;42.228;24.728;2024-03-23T08:00:47;99636.56;;;22.53;35.37
86684;BME280;77427;42.228;24.728;2024-03-23T08:03:12;99633.84;;;22.53;35.92
86684;BME280;77427;42.228;24.728;2024-03-23T08:05:38;99622.72;;;22.48;35.31
86684;BME280;77427;42.228;24.728;2024-03-23T08:08:03;99626.53;;;22.54;35.62
86684;BME280;77427;42.228;24.728;2024-03-23T08:10:29;99620.44;;;22.52;35.53
86684;BME280;77427;42.228;24.728;2024-03-23T08:12:54;99629.03;;;22.55;35.81
86684;BME280;77427;42.228;24.728;2024-03-23T08:15:20;99625.28;;;22.56;35.93
86684;BME280;77427;42.228;24.728;2024-03-23T08:17:45;99622.81;;;22.61;35.33
86684;BME280;77427;42.228;24.728;2024-03-23T08:20:11;99619.91;;;22.63;36.23
86684;BME280;77427;42.228;24.728;2024-03-23T08:22:36;99624.50;;;22.62;36.26
86684;BME280;77427;42.228;24.728;2024-03-23T08:25:01;99615.75;;;22.67;35.85
86684;BME280;77427;42.228;24.728;2024-03-23T08:27:27;99615.75;;;22.73;36.02
86684;BME280;77427;42.228;24.728;2024-03-23T08:29:52;99607.59;;;22.73;36.42
86684;BME280;77427;42.228;24.728;2024-03-23T08:32:17;99602.81;;;22.75;36.34
86684;BME280;77427;42.228;24.728;2024-03-23T08:34:43;99604.50;;;22.83;35.47
86684;BME280;77427;42.228;24.728;2024-03-23T08:37:08;99597.84;;;22.85;35.47
86684;BME280;77427;42.228;24.728;2024-03-23T08:39:34;99597.00;;;22.85;36.08
86684;BME280;77427;42.228;24.728;2024-03-23T08:41:59;99589.66;;;22.85;36.10
86684;BME280;77427;42.228;24.728;2024-03-23T08:44:24;99586.16;;;22.98;36.20
86684;BME280;77427;42.228;24.728;2024-03-23T08:46:50;99588.25;;;23.02;35.49
86684;BME280;77427;42.228;24.728;2024-03-23T08:49:15;99587.88;;;23.05;35.73
86684;BME280;77427;42.228;24.728;2024-03-23T08:51:41;99587.91;;;23.18;35.54
86684;BME280;77427;42.228;24.728;2024-03-23T08:54:06;99579.53;;;23.26;34.83
86684;BME280;77427;42.228;24.728;2024-03-23T08:56:32;99574.50;;;23.23;35.70
86684;BME280;77427;42.228;24.728;2024-03-23T08:58:57;99579.38;;;23.35;35.06
86684;BME280;77427;42.228;24.728;2024-03-23T09:01:22;99575.84;;;23.47;34.78
86684;BME280;77427;42.228;24.728;2024-03-23T09:03:48;99572.09;;;23.48;35.14
86684;BME280;77427;42.228;24.728;2024-03-23T09:06:14;99560.75;;;23.45;35.54
86684;BME280;77427;42.228;24.728;2024-03-23T09:08:40;99573.13;;;23.60;35.19
86684;BME280;77427;42.228;24.728;2024-03-23T09:11:07;99564.34;;;23.65;34.59
86684;BME280;77427;42.228;24.728;2024-03-23T09:13:33;99560.34;;;23.61;35.11
86684;BME280;77427;42.228;24.728;2024-03-23T09:15:59;99558.47;;;23.68;34.69
86684;BME280;77427;42.228;24.728;2024-03-23T09:18:25;99559.94;;;23.77;34.88
86684;BME280;77427;42.228;24.728;2024-03-23T09:20:50;99542.75;;;23.76;34.60
86684;BME280;77427;42.228;24.728;2024-03-23T09:23:16;99541.72;;;23.71;34.46
86684;BME280;77427;42.228;24.728;2024-03-23T09:25:41;99538.13;;;23.64;34.54
86684;BME280;77427;42.228;24.728;2024-03-23T09:28:07;99538.97;;;23.58;34.84
86684;BME280;77427;42.228;24.728;2024-03-23T09:30:36;99526.19;;;23.52;35.11
86684;BME280;77427;42.228;24.728;2024-03-23T09:33:07;99517.19;;;23.58;34.66
86684;BME280;77427;42.228;24.728;2024-03-23T09:35:37;99525.13;;;23.66;34.76
86684;BME280;77427;42.228;24.728;2024-03-23T09:38:02;99527.22;;;23.64;35.32
86684;BME280;77427;42.228;24.728;2024-03-23T09:40:27;99520.94;;;23.57;36.64
86684;BME280;77427;42.228;24.728;2024-03-23T09:42:53;99520.09;;;23.50;36.14
86684;BME280;77427;42.228;24.728;2024-03-23T09:45:26;99511.09;;;23.56;35.54
86684;BME280;77427;42.228;24.728;2024-03-23T09:47:52;99505.41;;;23.64;35.70
86684;BME280;77427;42.228;24.728;2024-03-23T09:50:18;99516.31;;;23.64;36.00
86684;BME280;77427;42.228;24.728;2024-03-23T09:52:46;99511.50;;;23.59;35.95
86684;BME280;77427;42.228;24.728;2024-03-23T09:55:11;99506.91;;;23.53;35.76
86684;BME280;77427;42.228;24.728;2024-03-23T09:57:37;99497.25;;;23.51;35.62
86684;BME280;77427;42.228;24.728;2024-03-23T10:00:03;99496.59;;;23.62;35.67
86684;BME280;77427;42.228;24.728;2024-03-23T10:02:29;99484.47;;;23.64;35.34
86684;BME280;77427;42.228;24.728;2024-03-23T10:04:55;99485.31;;;23.65;35.78
86684;BME280;77427;42.228;24.728;2024-03-23T10:07:21;99478.59;;;23.74;35.38
86684;BME280;77427;42.228;24.728;2024-03-23T10:09:49;99476.88;;;23.86;35.18
86684;BME280;77427;42.228;24.728;2024-03-23T10:12:19;99472.50;;;23.85;34.89
86684;BME280;77427;42.228;24.728;2024-03-23T10:14:44;99464.13;;;23.80;35.20
86684;BME280;77427;42.228;24.728;2024-03-23T10:17:20;99461.16;;;23.75;35.64
86684;BME280;77427;42.228;24.728;2024-03-23T10:19:50;99456.78;;;23.67;35.94
86684;BME280;77427;42.228;24.728;2024-03-23T10:22:20;99452.16;;;23.68;36.08
86684;BME280;77427;42.228;24.728;2024-03-23T10:24:45;99450.09;;;23.76;36.07
86684;BME280;77427;42.228;24.728;2024-03-23T10:27:29;99449.22;;;23.82;36.09
86684;BME280;77427;42.228;24.728;2024-03-23T10:30:08;99443.75;;;23.82;36.39
86684;BME280;77427;42.228;24.728;2024-03-23T10:32:34;99432.19;;;23.93;35.67
86684;BME280;77427;42.228;24.728;2024-03-23T10:35:19;99429.47;;;24.00;35.76
86684;BME280;77427;42.228;24.728;2024-03-23T10:37:45;99425.72;;;23.94;35.33
86684;BME280;77427;42.228;24.728;2024-03-23T10:40:17;99416.50;;;23.89;35.76
86684;BME280;77427;42.228;24.728;2024-03-23T10:42:44;99421.72;;;23.84;36.16
86684;BME280;77427;42.228;24.728;2024-03-23T10:45:09;99413.59;;;23.77;36.05
86684;BME280;77427;42.228;24.728;2024-03-23T10:47:36;99410.22;;;23.82;35.85
86684;BME280;77427;42.228;24.728;2024-03-23T10:50:05;99407.88;;;23.92;35.87
86684;BME280;77427;42.228;24.728;2024-03-23T10:52:34;99396.97;;;23.92;35.42
86684;BME280;77427;42.228;24.728;2024-03-23T10:55:02;99399.28;;;24.01;35.36
86684;BME280;77427;42.228;24.728;2024-03-23T10:57:59;99393.56;;;24.16;35.42
86684;BME280;77427;42.228;24.728;2024-03-23T11:00:25;99383.72;;;24.15;35.04
86684;BME280;77427;42.228;24.728;2024-03-23T11:02:51;99380.56;;;24.18;35.59
86684;BME280;77427;42.228;24.728;2024-03-23T11:07:52;99375.63;;;24.40;34.98
86684;BME280;77427;42.228;24.728;2024-03-23T11:12:54;99362.88;;;24.27;34.68
86684;BME280;77427;42.228;24.728;2024-03-23T11:15:20;99351.41;;;24.18;35.63
86684;BME280;77427;42.228;24.728;2024-03-23T11:18:06;99345.13;;;24.11;35.49
86684;BME280;77427;42.228;24.728;2024-03-23T11:20:35;99345.16;;;24.05;35.52
86684;BME280;77427;42.228;24.728;2024-03-23T11:23:01;99327.94;;;24.11;35.13
86684;BME280;77427;42.228;24.728;2024-03-23T11:25:28;99329.56;;;24.18;34.83
86684;BME280;77427;42.228;24.728;2024-03-23T11:27:57;99326.22;;;24.16;35.00
86684;BME280;77427;42.228;24.728;2024-03-23T11:30:24;99322.47;;;24.11;35.16
86684;BME280;77427;42.228;24.728;2024-03-23T11:32:51;99314.53;;;24.03;34.92
86684;BME280;77427;42.228;24.728;2024-03-23T11:38:24;99305.66;;;24.14;34.82
86684;BME280;77427;42.228;24.728;2024-03-23T11:40:50;99300.84;;;24.16;34.91
86684;BME280;77427;42.228;24.728;2024-03-23T11:43:16;99297.69;;;24.19;35.25
86684;BME280;77427;42.228;24.728;2024-03-23T11:45:49;99288.81;;;24.30;35.12
86684;BME280;77427;42.228;24.728;2024-03-23T11:48:23;99282.84;;;24.40;34.62
86684;BME280;77427;42.228;24.728;2024-03-23T11:50:55;99275.34;;;24.35;34.53
86684;BME280;77427;42.228;24.728;2024-03-23T11:53:21;99271.91;;;24.46;34.31
86684;BME280;77427;42.228;24.728;2024-03-23T11:55:56;99272.25;;;24.56;33.86
86684;BME280;77427;42.228;24.728;2024-03-23T11:58:24;99269.09;;;24.53;34.59
86684;BME280;77427;42.228;24.728;2024-03-23T12:00:56;99263.50;;;24.48;34.59
86684;BME280;77427;42.228;24.728;2024-03-23T12:03:21;99256.06;;;24.55;34.09
86684;BME280;77427;42.228;24.728;2024-03-23T12:05:51;99256.66;;;24.63;33.83
86684;BME280;77427;42.228;24.728;2024-03-23T12:10:54;99242.03;;;24.51;34.14
86684;BME280;77427;42.228;24.728;2024-03-23T12:13:29;99248.84;;;24.42;34.37
86684;BME280;77427;42.228;24.728;2024-03-23T12:15:54;99242.44;;;24.30;35.06
86684;BME280;77427;42.228;24.728;2024-03-23T12:18:23;99232.94;;;24.33;34.89
86684;BME280;77427;42.228;24.728;2024-03-23T12:20:49;99229.28;;;24.45;34.56
86684;BME280;77427;42.228;24.728;2024-03-23T12:23:15;99218.38;;;24.45;34.94
86684;BME280;77427;42.228;24.728;2024-03-23T12:25:41;99224.50;;;24.41;34.73
86684;BME280;77427;42.228;24.728;2024-03-23T12:28:07;99220.16;;;24.33;35.19
86684;BME280;77427;42.228;24.728;2024-03-23T12:30:33;99208.47;;;24.26;35.56
86684;BME280;77427;42.228;24.728;2024-03-23T12:32:59;99209.13;;;24.22;35.29
86684;BME280;77427;42.228;24.728;2024-03-23T12:35:24;99206.13;;;24.30;35.30
86684;BME280;77427;42.228;24.728;2024-03-23T12:37:50;99203.53;;;24.41;34.64
86684;BME280;77427;42.228;24.728;2024-03-23T12:40:15;99193.88;;;24.39;35.52
86684;BME280;77427;42.228;24.728;2024-03-23T12:42:41;99188.78;;;24.49;35.39
86684;BME280;77427;42.228;24.728;2024-03-23T12:45:06;99181.59;;;24.54;34.93
86684;BME280;77427;42.228;24.728;2024-03-23T12:47:32;99182.84;;;24.52;35.24
86684;BME280;77427;42.228;24.728;2024-03-23T12:49:57;99177.78;;;24.55;35.94
86684;BME280;77427;42.228;24.728;2024-03-23T12:52:23;99168.47;;;24.63;35.80
86684;BME280;77427;42.228;24.728;2024-03-23T12:54:54;99160.94;;;24.58;35.77
86684;BME280;77427;42.228;24.728;2024-03-23T12:57:20;99162.25;;;24.56;35.71
86684;BME280;77427;42.228;24.728;2024-03-23T12:59:45;99159.22;;;24.64;35.72
86684;BME280;77427;42.228;24.728;2024-03-23T13:02:15;99159.59;;;24.74;35.70
86684;BME280;77427;42.228;24.728;2024-03-23T13:04:41;99146.78;;;24.68;35.64
86684;BME280;77427;42.228;24.728;2024-03-23T13:07:06;99152.25;;;24.74;35.91
86684;BME280;77427;42.228;24.728;2024-03-23T13:09:32;99153.84;;;24.82;35.40
86684;BME280;77427;42.228;24.728;2024-03-23T13:11:58;99142.91;;;24.82;34.63
86684;BME280;77427;42.228;24.728;2024-03-23T13:14:23;99128.94;;;24.72;35.51
86684;BME280;77427;42.228;24.728;2024-03-23T13:16:48;99139.63;;;24.73;35.38
86684;BME280;77427;42.228;24.728;2024-03-23T13:19:14;99137.22;;;24.83;34.78
86684;BME280;77427;42.228;24.728;2024-03-23T13:21:39;99125.84;;;24.86;34.38
86684;BME280;77427;42.228;24.728;2024-03-23T13:24:05;99119.16;;;24.82;34.72
86684;BME280;77427;42.228;24.728;2024-03-23T13:26:31;99128.50;;;24.75;35.34
86684;BME280;77427;42.228;24.728;2024-03-23T13:28:56;99117.28;;;24.83;34.86
86684;BME280;77427;42.228;24.728;2024-03-23T13:31:22;99111.97;;;24.88;34.37
86684;BME280;77427;42.228;24.728;2024-03-23T13:33:47;99116.75;;;24.92;34.70
86684;BME280;77427;42.228;24.728;2024-03-23T13:36:13;99110.78;;;24.84;35.02
86684;BME280;77427;42.228;24.728;2024-03-23T13:38:38;99103.38;;;24.84;34.98
86684;BME280;77427;42.228;24.728;2024-03-23T13:41:04;99104.31;;;24.96;34.69
86684;BME280;77427;42.228;24.728;2024-03-23T13:43:31;99094.44;;;24.95;34.54
86684;BME280;77427;42.228;24.728;2024-03-23T13:45:58;99102.25;;;24.92;34.42
86684;BME280;77427;42.228;24.728;2024-03-23T13:48:25;99095.56;;;24.88;34.90
86684;BME280;77427;42.228;24.728;2024-03-23T13:51:01;99091.28;;;24.98;34.22
86684;BME280;77427;42.228;24.728;2024-03-23T13:53:27;99089.97;;;25.01;34.12